createdAt,value
2023-04-01T00:00:30.594Z,28.91
2023-04-01T00:01:30.664Z,28.77
2023-04-01T00:02:30.805Z,31.47
2023-04-01T00:03:30.974Z,33.91
2023-04-01T00:04:31.841Z,39.18
2023-04-01T00:05:31.322Z,44.20
2023-04-01T00:06:31.124Z,48.25
2023-04-01T00:07:31.225Z,48.11
2023-04-01T00:08:31.345Z,40.28
2023-04-01T00:09:31.417Z,33.07
2023-04-01T00:10:31.557Z,33.10
2023-04-01T00:11:31.545Z,34.47
2023-04-01T00:12:31.602Z,35.02
2023-04-01T00:13:31.673Z,38.07
2023-04-01T00:14:31.715Z,42.50
2023-04-01T00:15:31.887Z,37.49
2023-04-01T00:16:31.958Z,38.10
2023-04-01T00:17:32.034Z,37.80
2023-04-01T00:18:32.153Z,37.77
2023-04-01T00:19:32.205Z,38.59
2023-04-01T00:20:32.272Z,40.17
2023-04-01T00:21:32.392Z,42.21
2023-04-01T00:22:32.450Z,42.59
2023-04-01T00:23:32.517Z,39.97
2023-04-01T00:24:32.621Z,40.54
2023-04-01T00:25:33.067Z,40.32
2023-04-01T00:26:32.791Z,34.22
2023-04-01T00:27:32.940Z,29.45
2023-04-01T00:28:32.998Z,19.39
2023-04-01T00:29:33.095Z,13.55
2023-04-01T00:30:33.174Z,10.92
2023-04-01T00:31:33.303Z,9.14
2023-04-01T00:32:33.367Z,8.21
2023-04-01T00:33:33.457Z,8.39
2023-04-01T00:34:33.592Z,8.78
2023-04-01T00:35:33.930Z,8.84
2023-04-01T00:36:33.797Z,8.81
2023-04-01T00:37:33.786Z,10.01
2023-04-01T00:38:33.914Z,9.52
2023-04-01T00:39:33.875Z,11.06
2023-04-01T00:40:33.926Z,13.16
2023-04-01T00:41:33.984Z,16.97
2023-04-01T00:42:34.047Z,20.83
2023-04-01T00:43:34.102Z,24.01
2023-04-01T00:44:34.172Z,26.95
2023-04-01T00:45:34.374Z,29.80
2023-04-01T00:46:34.292Z,31.28
2023-04-01T00:47:34.344Z,32.19
2023-04-01T00:48:34.424Z,33.82
2023-04-01T00:49:34.505Z,34.99
2023-04-01T00:50:34.576Z,35.48
2023-04-01T00:51:34.638Z,32.79
2023-04-01T00:52:34.767Z,30.55
2023-04-01T00:53:34.808Z,31.23
2023-04-01T00:54:34.896Z,28.07
2023-04-01T00:55:34.930Z,26.64
2023-04-01T00:56:35.023Z,25.39
2023-04-01T00:57:35.136Z,24.69
2023-04-01T00:58:35.313Z,26.15
2023-04-01T00:59:35.358Z,28.08
2023-04-01T01:00:35.465Z,42.21
2023-04-01T01:01:35.519Z,75.73
2023-04-01T01:02:35.649Z,76.04
2023-04-01T01:03:35.591Z,77.22
2023-04-01T01:04:35.655Z,78.36
2023-04-01T01:05:48.139Z,77.54
2023-04-01T01:06:36.760Z,75.83
2023-04-01T01:07:35.800Z,71.07
2023-04-01T01:08:35.836Z,57.48
2023-04-01T01:09:35.903Z,39.59
2023-04-01T01:10:35.948Z,36.09
2023-04-01T01:11:42.543Z,35.79
2023-04-01T01:12:37.050Z,35.87
2023-04-01T01:13:36.079Z,36.09
2023-04-01T01:14:36.126Z,36.70
2023-04-01T01:15:36.151Z,35.98
2023-04-01T01:16:36.257Z,37.06
2023-04-01T01:17:36.257Z,40.53
2023-04-01T01:18:36.277Z,45.33
2023-04-01T01:19:36.327Z,56.11
2023-04-01T01:20:36.368Z,54.13
2023-04-01T01:21:36.412Z,53.67
2023-04-01T01:22:36.448Z,51.02
2023-04-01T01:23:36.511Z,49.36
2023-04-01T01:24:36.541Z,46.74
2023-04-01T01:25:36.580Z,46.32
2023-04-01T01:26:36.617Z,39.82
2023-04-01T01:27:36.662Z,35.36
2023-04-01T01:28:36.802Z,30.61
2023-04-01T01:29:36.810Z,23.23
2023-04-01T01:30:36.908Z,19.41
2023-04-01T01:31:36.968Z,18.53
2023-04-01T01:32:37.203Z,18.67
2023-04-01T01:33:37.200Z,20.04
2023-04-01T01:34:37.210Z,21.95
2023-04-01T01:35:37.273Z,21.71
2023-04-01T01:36:37.323Z,23.27
2023-04-01T01:37:37.402Z,21.68
2023-04-01T01:38:37.472Z,19.12
2023-04-01T01:39:37.561Z,17.86
2023-04-01T01:40:37.641Z,16.48
2023-04-01T01:41:37.709Z,16.41
2023-04-01T01:42:37.777Z,17.25
2023-04-01T01:43:37.851Z,19.14
2023-04-01T01:44:37.935Z,22.08
2023-04-01T01:45:37.971Z,24.82
2023-04-01T01:46:38.105Z,27.16
2023-04-01T01:47:38.165Z,27.92
2023-04-01T01:48:38.189Z,23.58
2023-04-01T01:49:38.320Z,23.58
2023-04-01T01:50:38.381Z,26.54
2023-04-01T01:51:38.472Z,26.08
2023-04-01T01:52:38.565Z,27.90
2023-04-01T01:53:38.644Z,28.31
2023-04-01T01:54:38.719Z,30.43
2023-04-01T01:55:38.829Z,33.28
2023-04-01T01:56:38.840Z,33.99
2023-04-01T01:57:39.044Z,35.51
2023-04-01T01:58:39.070Z,35.93
2023-04-01T01:59:39.150Z,39.11
2023-04-01T02:00:39.225Z,37.33
2023-04-01T02:01:39.367Z,35.41
2023-04-01T02:02:39.364Z,37.93
2023-04-01T02:03:39.502Z,42.20
2023-04-01T02:04:39.589Z,46.71
2023-04-01T02:05:39.656Z,45.47
2023-04-01T02:06:39.732Z,42.73
2023-04-01T02:07:39.794Z,40.50
2023-04-01T02:08:39.931Z,36.37
2023-04-01T02:09:39.932Z,32.75
2023-04-01T02:10:40.045Z,31.63
2023-04-01T02:11:40.093Z,31.17
2023-04-01T02:12:40.168Z,31.02
2023-04-01T02:13:40.230Z,30.96
2023-04-01T02:14:40.283Z,29.79
2023-04-01T02:15:40.860Z,30.63
2023-04-01T02:16:40.397Z,34.93
2023-04-01T02:17:40.457Z,40.91
2023-04-01T02:18:40.538Z,46.77
2023-04-01T02:19:40.607Z,45.37
2023-04-01T02:20:40.663Z,45.93
2023-04-01T02:21:40.751Z,50.40
2023-04-01T02:22:40.859Z,50.17
2023-04-01T02:23:40.942Z,46.38
2023-04-01T02:24:41.044Z,46.51
2023-04-01T02:25:41.133Z,45.32
2023-04-01T02:26:41.218Z,43.37
2023-04-01T02:27:41.268Z,43.60
2023-04-01T02:28:41.286Z,43.81
2023-04-01T02:29:41.325Z,41.54
2023-04-01T02:30:41.420Z,33.87
2023-04-01T02:31:41.485Z,36.90
2023-04-01T02:32:41.473Z,42.58
2023-04-01T02:33:41.526Z,47.43
2023-04-01T02:34:41.603Z,53.24
2023-04-01T02:35:41.642Z,52.32
2023-04-01T02:36:41.675Z,52.21
2023-04-01T02:37:41.712Z,54.88
2023-04-01T02:38:41.767Z,43.04
2023-04-01T02:39:41.898Z,38.10
2023-04-01T02:40:41.967Z,35.74
2023-04-01T02:41:42.082Z,44.09
2023-04-01T02:42:42.254Z,55.79
2023-04-01T02:43:42.319Z,67.38
2023-04-01T02:44:42.408Z,75.56
2023-04-01T02:45:42.521Z,68.09
2023-04-01T02:46:42.666Z,53.20
2023-04-01T02:47:42.705Z,45.60
2023-04-01T02:48:42.825Z,42.28
2023-04-01T02:49:42.863Z,45.12
2023-04-01T02:50:43.046Z,45.16
2023-04-01T02:51:43.144Z,44.76
2023-04-01T02:52:43.220Z,46.56
2023-04-01T02:53:43.301Z,50.64
2023-04-01T02:54:43.401Z,60.75
2023-04-01T02:55:43.532Z,67.40
2023-04-01T02:56:43.636Z,72.28
2023-04-01T02:57:43.728Z,70.89
2023-04-01T02:58:43.859Z,68.07
2023-04-01T02:59:43.926Z,68.18
2023-04-01T03:00:43.988Z,63.46
2023-04-01T03:01:44.859Z,53.02
2023-04-01T03:02:44.124Z,47.17
2023-04-01T03:03:45.162Z,45.14
2023-04-01T03:04:44.121Z,45.75
2023-04-01T03:05:44.179Z,47.75
2023-04-01T03:06:44.227Z,51.13
2023-04-01T03:07:44.292Z,60.86
2023-04-01T03:08:44.339Z,61.21
2023-04-01T03:09:44.409Z,63.29
2023-04-01T03:10:44.418Z,66.13
2023-04-01T03:11:44.458Z,66.11
2023-04-01T03:12:44.529Z,69.41
2023-04-01T03:13:44.545Z,70.83
2023-04-01T03:14:44.593Z,69.56
2023-04-01T03:15:44.694Z,66.71
2023-04-01T03:16:44.715Z,67.80
2023-04-01T03:17:44.762Z,69.25
2023-04-01T03:18:44.780Z,65.62
2023-04-01T03:19:45.014Z,65.50
2023-04-01T03:20:45.800Z,63.57
2023-04-01T03:21:44.998Z,60.06
2023-04-01T03:22:45.131Z,59.34
2023-04-01T03:23:45.188Z,64.78
2023-04-01T03:24:45.294Z,75.31
2023-04-01T03:25:45.413Z,78.36
2023-04-01T03:26:45.611Z,77.05
2023-04-01T03:27:45.586Z,77.68
2023-04-01T03:28:45.631Z,79.68
2023-04-01T03:29:45.744Z,80.95
2023-04-01T03:30:45.803Z,75.43
2023-04-01T03:31:45.907Z,69.73
2023-04-01T03:32:46.897Z,71.20
2023-04-01T03:33:45.928Z,70.68
2023-04-01T03:34:46.812Z,65.63
2023-04-01T03:35:46.022Z,60.71
2023-04-01T03:36:46.201Z,64.01
2023-04-01T03:37:46.126Z,65.90
2023-04-01T03:38:46.230Z,64.56
2023-04-01T03:39:46.338Z,58.29
2023-04-01T03:40:46.495Z,58.65
2023-04-01T03:41:46.478Z,62.22
2023-04-01T03:42:46.566Z,61.19
2023-04-01T03:43:46.707Z,65.59
2023-04-01T03:44:46.752Z,69.09
2023-04-01T03:45:46.923Z,71.45
2023-04-01T03:46:46.991Z,72.98
2023-04-01T03:47:47.080Z,73.42
2023-04-01T03:48:47.081Z,72.67
2023-04-01T03:49:47.206Z,70.17
2023-04-01T03:50:47.272Z,60.94
2023-04-01T03:51:47.390Z,51.50
2023-04-01T03:52:47.464Z,44.58
2023-04-01T03:53:47.580Z,38.23
2023-04-01T03:54:47.656Z,34.94
2023-04-01T03:55:47.781Z,31.93
2023-04-01T03:56:47.871Z,28.45
2023-04-01T03:57:47.964Z,26.32
2023-04-01T03:58:48.028Z,35.88
2023-04-01T03:59:48.144Z,49.20
2023-04-01T04:00:48.222Z,55.21
2023-04-01T04:01:48.285Z,62.06
2023-04-01T04:02:48.511Z,65.89
2023-04-01T04:03:48.561Z,74.15
2023-04-01T04:04:48.640Z,77.97
2023-04-01T04:05:48.670Z,77.91
2023-04-01T04:06:48.749Z,78.40
2023-04-01T04:07:48.845Z,83.55
2023-04-01T04:08:48.942Z,89.81
2023-04-01T04:09:49.050Z,88.81
2023-04-01T04:10:49.134Z,93.19
2023-04-01T04:11:49.269Z,93.36
2023-04-01T04:12:49.372Z,95.76
2023-04-01T04:13:49.502Z,95.84
2023-04-01T04:14:50.328Z,96.64
2023-04-01T04:15:49.701Z,92.16
2023-04-01T04:16:50.301Z,91.37
2023-04-01T04:17:49.905Z,90.51
2023-04-01T04:18:49.930Z,88.88
2023-04-01T04:19:50.005Z,86.05
2023-04-01T04:20:50.088Z,73.41
2023-04-01T04:21:50.172Z,65.11
2023-04-01T04:22:50.328Z,58.75
2023-04-01T04:23:50.438Z,75.02
2023-04-01T04:24:51.322Z,82.44
2023-04-01T04:25:50.643Z,74.54
2023-04-01T04:26:50.730Z,68.16
2023-04-01T04:27:50.784Z,66.75
2023-04-01T04:28:50.854Z,59.14
2023-04-01T04:29:50.970Z,65.95
2023-04-01T04:30:51.047Z,79.12
2023-04-01T04:31:51.182Z,99.24
2023-04-01T04:32:51.248Z,135.82
2023-04-01T04:33:51.270Z,174.36
2023-04-01T04:34:51.316Z,298.63
2023-04-01T04:35:51.393Z,326.13
2023-04-01T04:36:51.470Z,348.89
2023-04-01T04:37:51.526Z,382.27
2023-04-01T04:38:51.681Z,404.41
2023-04-01T04:39:51.677Z,462.66
2023-04-01T04:40:51.743Z,422.91
2023-04-01T04:41:52.441Z,330.97
2023-04-01T04:42:51.968Z,287.73
2023-04-01T04:43:52.093Z,243.72
2023-04-01T04:44:52.166Z,202.58
2023-04-01T04:45:52.223Z,175.97
2023-04-01T04:46:52.396Z,180.39
2023-04-01T04:47:53.348Z,182.18
2023-04-01T04:48:52.498Z,150.50
2023-04-01T04:49:52.581Z,142.43
2023-04-01T04:50:52.700Z,137.04
2023-04-01T04:51:52.803Z,144.94
2023-04-01T04:52:52.876Z,133.77
2023-04-01T04:53:53.369Z,134.68
2023-04-01T04:54:53.041Z,139.56
2023-04-01T04:55:53.126Z,152.98
2023-04-01T04:56:53.383Z,167.19
2023-04-01T04:57:53.258Z,169.60
2023-04-01T04:58:53.344Z,189.84
2023-04-01T04:59:53.421Z,193.71
2023-04-01T05:00:53.516Z,204.42
2023-04-01T05:01:53.590Z,183.58
2023-04-01T05:02:53.817Z,168.64
2023-04-01T05:03:53.796Z,170.92
2023-04-01T05:04:54.320Z,156.33
2023-04-01T05:05:54.812Z,157.01
2023-04-01T05:06:53.948Z,163.67
2023-04-01T05:07:54.053Z,171.93
2023-04-01T05:08:54.208Z,175.70
2023-04-01T05:09:54.369Z,173.84
2023-04-01T05:10:54.320Z,172.18
2023-04-01T05:11:54.370Z,171.44
2023-04-01T05:12:54.456Z,169.26
2023-04-01T05:13:55.316Z,171.97
2023-04-01T05:14:54.627Z,213.40
2023-04-01T05:15:54.681Z,191.84
2023-04-01T05:16:54.873Z,263.53
2023-04-01T05:17:55.002Z,322.40
2023-04-01T05:18:54.969Z,306.02
2023-04-01T05:19:55.056Z,319.46
2023-04-01T05:20:55.156Z,319.77
2023-04-01T05:21:55.270Z,335.59
2023-04-01T05:22:55.361Z,355.20
2023-04-01T05:23:55.433Z,364.26
2023-04-01T05:24:55.527Z,305.85
2023-04-01T05:25:55.599Z,280.87
2023-04-01T05:26:56.969Z,263.06
2023-04-01T05:27:56.319Z,265.09
2023-04-01T05:28:55.896Z,267.00
2023-04-01T05:29:55.992Z,252.79
2023-04-01T05:30:56.094Z,245.50
2023-04-01T05:31:56.125Z,245.78
2023-04-01T05:32:56.249Z,248.06
2023-04-01T05:33:56.257Z,248.72
2023-04-01T05:34:56.276Z,250.01
2023-04-01T05:35:56.333Z,253.61
2023-04-01T05:36:56.351Z,261.90
2023-04-01T05:37:56.389Z,274.09
2023-04-01T05:38:56.515Z,285.44
2023-04-01T05:39:56.441Z,308.51
2023-04-01T05:40:56.477Z,321.72
2023-04-01T05:41:56.497Z,329.02
2023-04-01T05:42:56.556Z,361.37
2023-04-01T05:43:56.597Z,315.22
2023-04-01T05:44:56.628Z,272.93
2023-04-01T05:45:56.742Z,206.24
2023-04-01T05:46:56.771Z,209.87
2023-04-01T05:47:56.925Z,244.72
2023-04-01T05:48:56.968Z,243.76
2023-04-01T05:49:57.057Z,257.49
2023-04-01T05:50:57.135Z,275.29
2023-04-01T05:51:57.224Z,289.14
2023-04-01T05:52:57.321Z,307.41
2023-04-01T05:53:57.363Z,377.45
2023-04-01T05:54:57.417Z,532.75
2023-04-01T05:55:57.468Z,498.46
2023-04-01T05:56:57.588Z,540.05
2023-04-01T05:57:57.633Z,492.70
2023-04-01T05:58:57.704Z,482.76
2023-04-01T05:59:57.766Z,451.81
2023-04-01T06:01:08.768Z,418.26
2023-04-01T06:01:59.842Z,418.52
2023-04-01T06:02:57.933Z,406.50
2023-04-01T06:03:57.928Z,397.80
2023-04-01T06:04:57.985Z,381.52
2023-04-01T06:05:57.906Z,370.19
2023-04-01T06:06:57.934Z,356.17
2023-04-01T06:07:58.018Z,363.82
2023-04-01T06:08:58.093Z,355.28
2023-04-01T06:09:58.172Z,374.55
2023-04-01T06:10:58.262Z,358.84
2023-04-01T06:11:58.387Z,353.91
2023-04-01T06:12:58.405Z,291.35
2023-04-01T06:13:58.483Z,259.24
2023-04-01T06:14:58.519Z,229.62
2023-04-01T06:15:58.586Z,247.61
2023-04-01T06:16:58.590Z,271.09
2023-04-01T06:17:58.764Z,258.76
2023-04-01T06:18:58.762Z,241.85
2023-04-01T06:19:58.825Z,228.07
2023-04-01T06:20:58.913Z,222.16
2023-04-01T06:21:58.971Z,219.75
2023-04-01T06:22:59.051Z,222.15
2023-04-01T06:23:59.094Z,210.99
2023-04-01T06:24:59.819Z,194.30
2023-04-01T06:25:59.229Z,214.26
2023-04-01T06:26:59.230Z,227.25
2023-04-01T06:27:59.275Z,218.82
2023-04-01T06:28:59.320Z,217.02
2023-04-01T06:29:59.330Z,192.67
2023-04-01T06:30:59.379Z,164.97
2023-04-01T06:31:59.394Z,153.37
2023-04-01T06:32:59.445Z,150.24
2023-04-01T06:33:59.410Z,160.60
2023-04-01T06:34:59.423Z,172.29
2023-04-01T06:35:59.529Z,205.74
2023-04-01T06:36:59.502Z,233.42
2023-04-01T06:37:59.493Z,232.95
2023-04-01T06:38:59.495Z,228.65
2023-04-01T06:39:59.545Z,222.66
2023-04-01T06:40:59.537Z,204.57
2023-04-01T06:41:59.568Z,204.72
2023-04-01T06:42:59.652Z,206.75
2023-04-01T06:43:59.744Z,204.09
2023-04-01T06:44:59.754Z,204.04
2023-04-01T06:46:00.840Z,182.08
2023-04-01T06:47:00.837Z,148.36
2023-04-01T06:47:59.961Z,146.37
2023-04-01T06:48:59.965Z,188.40
2023-04-01T06:50:00.008Z,148.17
2023-04-01T06:51:00.079Z,92.20
2023-04-01T06:52:00.129Z,82.02
2023-04-01T06:53:00.166Z,113.98
2023-04-01T06:54:00.183Z,144.48
2023-04-01T06:55:00.260Z,150.94
2023-04-01T06:56:00.298Z,138.26
2023-04-01T06:57:00.350Z,127.28
2023-04-01T06:58:00.416Z,116.52
2023-04-01T06:59:00.530Z,164.95
2023-04-01T07:00:00.420Z,217.11
2023-04-01T07:01:00.467Z,222.46
2023-04-01T07:02:00.513Z,142.06
2023-04-01T07:03:00.626Z,109.00
2023-04-01T07:04:00.694Z,100.95
2023-04-01T07:05:00.816Z,109.66
2023-04-01T07:06:00.698Z,124.06
2023-04-01T07:07:00.796Z,130.24
2023-04-01T07:08:00.827Z,150.92
2023-04-01T07:09:01.791Z,163.43
2023-04-01T07:10:00.869Z,136.20
2023-04-01T07:11:00.889Z,97.96
2023-04-01T07:12:00.888Z,66.75
2023-04-01T07:13:00.896Z,53.56
2023-04-01T07:14:00.963Z,58.45
2023-04-01T07:15:00.914Z,34.56
2023-04-01T07:16:00.880Z,20.16
2023-04-01T07:17:00.958Z,19.32
2023-04-01T07:18:00.895Z,19.29
2023-04-01T07:19:00.871Z,20.18
2023-04-01T07:20:00.901Z,22.33
2023-04-01T07:21:00.866Z,23.05
2023-04-01T07:22:00.853Z,17.01
2023-04-01T07:23:00.852Z,15.10
2023-04-01T07:24:00.863Z,15.69
2023-04-01T07:25:00.855Z,21.42
2023-04-01T07:26:00.880Z,30.56
2023-04-01T07:27:00.849Z,35.95
2023-04-01T07:28:00.842Z,52.19
2023-04-01T07:29:00.840Z,61.55
2023-04-01T07:30:00.837Z,54.86
2023-04-01T07:31:00.845Z,34.26
2023-04-01T07:32:00.813Z,48.23
2023-04-01T07:33:00.814Z,65.77
2023-04-01T07:34:00.838Z,75.40
2023-04-01T07:35:00.853Z,97.31
2023-04-01T07:36:00.854Z,77.47
2023-04-01T07:37:00.785Z,53.81
2023-04-01T07:38:00.803Z,42.66
2023-04-01T07:39:00.805Z,46.99
2023-04-01T07:40:00.765Z,49.42
2023-04-01T07:41:00.765Z,25.60
2023-04-01T07:42:00.764Z,35.95
2023-04-01T07:43:00.819Z,28.15
2023-04-01T07:44:00.856Z,21.06
2023-04-01T07:45:00.891Z,20.65
2023-04-01T07:46:00.973Z,15.58
2023-04-01T07:47:00.968Z,14.16
2023-04-01T07:48:01.004Z,10.55
2023-04-01T07:49:00.967Z,11.25
2023-04-01T07:50:01.011Z,11.75
2023-04-01T07:51:00.998Z,3.86
2023-04-01T07:52:00.991Z,2.33
2023-04-01T07:53:00.975Z,1.29
2023-04-01T07:54:00.945Z,0.68
2023-04-01T07:55:00.912Z,0.53
2023-04-01T07:56:00.925Z,0.56
2023-04-01T07:57:00.958Z,0.53
2023-04-01T07:58:00.957Z,0.50
2023-04-01T07:59:01.342Z,0.44
2023-04-01T08:00:00.904Z,0.34
2023-04-01T08:01:00.868Z,0.34
2023-04-01T08:02:00.868Z,0.35
2023-04-01T08:03:00.964Z,0.35
2023-04-01T08:04:01.085Z,0.37
2023-04-01T08:05:00.947Z,0.35
2023-04-01T08:06:00.957Z,0.50
2023-04-01T08:07:00.872Z,0.78
2023-04-01T08:08:00.874Z,0.35
2023-04-01T08:09:00.846Z,0.68
2023-04-01T08:10:00.882Z,0.72
2023-04-01T08:11:00.906Z,0.58
2023-04-01T08:12:00.846Z,0.34
2023-04-01T08:13:00.885Z,0.34
2023-04-01T08:14:00.889Z,0.34
2023-04-01T08:15:00.878Z,0.34
2023-04-01T08:16:00.898Z,0.34
2023-04-01T08:17:00.805Z,0.34
2023-04-01T08:18:00.806Z,0.34
2023-04-01T08:19:00.750Z,0.34
2023-04-01T08:20:00.763Z,0.41
2023-04-01T08:21:00.724Z,0.54
2023-04-01T08:22:00.721Z,0.52
2023-04-01T08:23:00.648Z,0.51
2023-04-01T08:24:00.652Z,0.44
2023-04-01T08:25:00.572Z,0.49
2023-04-01T08:26:00.566Z,0.50
2023-04-01T08:27:00.584Z,0.67
2023-04-01T08:28:00.560Z,0.62
2023-04-01T08:29:00.614Z,0.50
2023-04-01T08:30:00.570Z,0.58
2023-04-01T08:31:00.559Z,1.06
2023-04-01T08:32:01.401Z,0.67
2023-04-01T08:33:00.599Z,0.54
2023-04-01T08:34:00.564Z,0.93
2023-04-01T08:35:00.502Z,0.85
2023-04-01T08:36:00.582Z,0.85
2023-04-01T08:37:00.503Z,0.75
2023-04-01T08:38:00.459Z,0.37
2023-04-01T08:39:00.425Z,0.34
2023-04-01T08:40:00.393Z,0.34
2023-04-01T08:41:00.310Z,0.38
2023-04-01T08:42:00.252Z,0.34
2023-04-01T08:43:00.200Z,0.34
2023-04-01T08:44:00.215Z,0.34
2023-04-01T08:45:00.082Z,0.41
2023-04-01T08:46:00.084Z,0.55
2023-04-01T08:47:00.011Z,0.43
2023-04-01T08:47:59.951Z,0.42
2023-04-01T08:48:59.855Z,0.41
2023-04-01T08:49:59.870Z,0.48
2023-04-01T08:50:59.864Z,0.41
2023-04-01T08:51:59.834Z,0.46
2023-04-01T08:52:59.809Z,0.62
2023-04-01T08:53:59.803Z,0.47
2023-04-01T08:54:59.818Z,0.50
2023-04-01T08:55:59.778Z,0.51
2023-04-01T08:56:59.816Z,0.61
2023-04-01T08:57:59.676Z,0.70
2023-04-01T08:58:59.672Z,0.77
2023-04-01T08:59:59.643Z,1.03
2023-04-01T09:00:59.623Z,1.70
2023-04-01T09:01:59.638Z,1.68
2023-04-01T09:02:59.708Z,1.52
2023-04-01T09:03:59.743Z,2.32
2023-04-01T09:04:59.681Z,2.83
2023-04-01T09:05:59.658Z,3.52
2023-04-01T09:06:59.650Z,3.86
2023-04-01T09:07:59.638Z,2.47
2023-04-01T09:08:59.604Z,3.00
2023-04-01T09:09:59.619Z,2.53
2023-04-01T09:10:59.622Z,2.68
2023-04-01T09:11:59.562Z,2.68
2023-04-01T09:12:59.477Z,2.51
2023-04-01T09:13:59.466Z,2.65
2023-04-01T09:14:59.477Z,2.16
2023-04-01T09:16:00.378Z,2.00
2023-04-01T09:16:59.396Z,2.20
2023-04-01T09:17:59.407Z,2.18
2023-04-01T09:18:59.358Z,1.92
2023-04-01T09:19:59.353Z,1.41
2023-04-01T09:20:59.307Z,1.53
2023-04-01T09:21:59.294Z,2.37
2023-04-01T09:22:59.261Z,2.00
2023-04-01T09:23:59.237Z,1.47
2023-04-01T09:24:59.370Z,1.26
2023-04-01T09:25:59.863Z,1.69
2023-04-01T09:26:59.787Z,1.25
2023-04-01T09:27:59.063Z,1.43
2023-04-01T09:28:59.050Z,1.34
2023-04-01T09:29:59.048Z,1.33
2023-04-01T09:30:59.891Z,0.85
2023-04-01T09:31:58.969Z,0.81
2023-04-01T09:32:58.982Z,1.00
2023-04-01T09:33:59.378Z,1.62
2023-04-01T09:34:58.839Z,1.47
2023-04-01T09:35:58.819Z,1.04
2023-04-01T09:37:00.395Z,0.82
2023-04-01T09:37:58.789Z,0.77
2023-04-01T09:38:59.369Z,0.82
2023-04-01T09:39:58.702Z,1.35
2023-04-01T09:40:58.636Z,1.66
2023-04-01T09:41:58.601Z,1.44
2023-04-01T09:42:58.564Z,1.05
2023-04-01T09:43:59.365Z,0.68
2023-04-01T09:44:58.613Z,0.54
2023-04-01T09:45:58.629Z,0.63
2023-04-01T09:46:59.360Z,0.57
2023-04-01T09:47:58.512Z,0.61
2023-04-01T09:48:59.361Z,0.62
2023-04-01T09:49:58.353Z,0.62
2023-04-01T09:50:58.866Z,0.67
2023-04-01T09:51:58.879Z,0.63
2023-04-01T09:52:58.333Z,0.75
2023-04-01T09:53:58.967Z,1.16
2023-04-01T09:54:58.285Z,2.17
2023-04-01T09:55:58.930Z,2.18
2023-04-01T09:56:58.290Z,1.47
2023-04-01T09:57:58.243Z,1.44
2023-04-01T09:58:58.207Z,0.83
2023-04-01T09:59:58.223Z,0.83
2023-04-01T10:00:59.880Z,0.66
2023-04-01T10:01:58.183Z,0.70
2023-04-01T10:02:58.185Z,0.95
2023-04-01T10:03:58.108Z,0.95
2023-04-01T10:04:58.116Z,0.87
2023-04-01T10:05:58.122Z,0.81
2023-04-01T10:06:58.088Z,0.70
2023-04-01T10:07:58.872Z,0.59
2023-04-01T10:08:58.024Z,0.60
2023-04-01T10:09:58.369Z,0.71
2023-04-01T10:10:58.029Z,0.96
2023-04-01T10:11:58.029Z,0.77
2023-04-01T10:12:58.001Z,0.78
2023-04-01T10:13:58.031Z,0.60
2023-04-01T10:14:58.091Z,0.54
2023-04-01T10:16:02.896Z,0.59
2023-04-01T10:16:58.884Z,0.45
2023-04-01T10:17:57.883Z,0.48
2023-04-01T10:18:58.371Z,0.45
2023-04-01T10:19:57.735Z,0.42
2023-04-01T10:20:57.644Z,0.34
2023-04-01T10:21:57.634Z,0.34
2023-04-01T10:22:57.531Z,0.45
2023-04-01T10:23:57.541Z,0.50
2023-04-01T10:24:58.359Z,0.51
2023-04-01T10:25:57.401Z,0.58
2023-04-01T10:26:57.313Z,0.58
2023-04-01T10:27:57.878Z,0.49
2023-04-01T10:28:57.229Z,0.41
2023-04-01T10:29:57.204Z,0.37
2023-04-01T10:30:57.247Z,0.35
2023-04-01T10:31:57.219Z,0.34
2023-04-01T10:32:58.897Z,0.42
2023-04-01T10:33:57.136Z,0.49
2023-04-01T10:34:57.035Z,0.50
2023-04-01T10:35:57.028Z,0.54
2023-04-01T10:36:57.873Z,0.56
2023-04-01T10:37:56.885Z,0.61
2023-04-01T10:38:56.871Z,0.62
2023-04-01T10:39:56.824Z,0.54
2023-04-01T10:40:56.832Z,0.50
2023-04-01T10:41:56.703Z,0.49
2023-04-01T10:42:56.642Z,0.49
2023-04-01T10:43:56.868Z,0.39
2023-04-01T10:44:56.611Z,0.37
2023-04-01T10:45:56.593Z,0.34
2023-04-01T10:46:57.415Z,0.37
2023-04-01T10:47:56.541Z,0.48
2023-04-01T10:48:56.468Z,0.66
2023-04-01T10:49:56.424Z,0.71
2023-04-01T10:50:56.981Z,0.82
2023-04-01T10:51:56.439Z,0.63
2023-04-01T10:52:56.426Z,0.84
2023-04-01T10:53:56.384Z,0.89
2023-04-01T10:54:56.418Z,1.00
2023-04-01T10:55:56.306Z,1.11
2023-04-01T10:56:56.297Z,0.95
2023-04-01T10:57:56.190Z,0.72
2023-04-01T10:58:56.159Z,0.63
2023-04-01T10:59:56.119Z,0.59
2023-04-01T11:00:56.225Z,0.71
2023-04-01T11:02:10.178Z,0.91
2023-04-01T11:02:57.091Z,0.80
2023-04-01T11:03:56.000Z,0.52
2023-04-01T11:04:55.856Z,0.46
2023-04-01T11:05:55.770Z,0.36
2023-04-01T11:06:55.666Z,0.34
2023-04-01T11:08:05.333Z,0.37
2023-04-01T11:08:56.549Z,0.37
2023-04-01T11:09:55.446Z,0.37
2023-04-01T11:10:55.415Z,0.34
2023-04-01T11:11:55.264Z,0.34
2023-04-01T11:12:55.184Z,0.34
2023-04-01T11:13:57.868Z,0.34
2023-04-01T11:14:55.022Z,0.34
2023-04-01T11:15:55.078Z,0.51
2023-04-01T11:16:54.821Z,0.40
2023-04-01T11:17:54.866Z,0.47
2023-04-01T11:18:54.644Z,0.54
2023-04-01T11:19:54.706Z,0.54
2023-04-01T11:20:54.476Z,0.63
2023-04-01T11:21:54.395Z,1.31
2023-04-01T11:22:54.267Z,1.64
2023-04-01T11:24:04.547Z,1.37
2023-04-01T11:24:55.369Z,1.18
2023-04-01T11:25:54.237Z,1.15
2023-04-01T11:26:54.281Z,1.40
2023-04-01T11:27:54.152Z,1.20
2023-04-01T11:28:54.147Z,0.96
2023-04-01T11:30:00.201Z,0.77
2023-04-01T11:30:54.858Z,0.78
2023-04-01T11:31:54.340Z,0.72
2023-04-01T11:32:53.708Z,0.68
2023-04-01T11:33:53.533Z,0.63
2023-04-01T11:34:53.503Z,0.70
2023-04-01T11:35:53.365Z,0.86
2023-04-01T11:36:53.243Z,1.23
2023-04-01T11:37:53.113Z,1.83
2023-04-01T11:38:53.052Z,2.28
2023-04-01T11:39:53.019Z,1.09
2023-04-01T11:40:53.026Z,0.95
2023-04-01T11:41:52.961Z,0.92
2023-04-01T11:42:52.924Z,0.94
2023-04-01T11:43:52.874Z,1.12
2023-04-01T11:44:52.819Z,1.17
2023-04-01T11:45:52.810Z,1.33
2023-04-01T11:46:52.701Z,1.35
2023-04-01T11:47:52.692Z,1.44
2023-04-01T11:48:52.552Z,1.73
2023-04-01T11:49:52.483Z,2.93
2023-04-01T11:50:52.924Z,2.91
2023-04-01T11:51:52.382Z,3.50
2023-04-01T11:52:52.315Z,4.15
2023-04-01T11:53:52.232Z,3.14
2023-04-01T11:54:52.184Z,2.30
2023-04-01T11:55:52.213Z,1.34
2023-04-01T11:56:52.150Z,1.32
2023-04-01T11:57:51.988Z,1.61
2023-04-01T11:58:51.902Z,1.18
2023-04-01T11:59:51.836Z,1.45
2023-04-01T12:00:51.787Z,1.18
2023-04-01T12:01:51.758Z,1.03
2023-04-01T12:02:51.786Z,0.89
2023-04-01T12:03:51.659Z,0.49
2023-04-01T12:04:51.563Z,0.39
2023-04-01T12:05:51.437Z,0.59
2023-04-01T12:06:51.399Z,0.56
2023-04-01T12:07:51.337Z,0.47
2023-04-01T12:08:51.286Z,0.55
2023-04-01T12:09:51.153Z,0.60
2023-04-01T12:10:51.105Z,0.58
2023-04-01T12:11:51.059Z,0.58
2023-04-01T12:13:00.738Z,0.63
2023-04-01T12:13:51.898Z,0.61
2023-04-01T12:14:50.799Z,0.64
2023-04-01T12:15:50.677Z,0.65
2023-04-01T12:16:50.620Z,0.85
2023-04-01T12:17:50.508Z,1.16
2023-04-01T12:18:50.437Z,1.55
2023-04-01T12:19:50.284Z,0.97
2023-04-01T12:20:50.901Z,1.60
2023-04-01T12:21:50.094Z,1.05
2023-04-01T12:22:50.007Z,1.25
2023-04-01T12:23:49.862Z,1.40
2023-04-01T12:24:49.857Z,1.13
2023-04-01T12:25:49.695Z,0.83
2023-04-01T12:26:49.634Z,0.76
2023-04-01T12:27:51.449Z,0.89
2023-04-01T12:28:49.557Z,2.18
2023-04-01T12:29:49.532Z,1.68
2023-04-01T12:30:49.442Z,1.20
2023-04-01T12:31:49.450Z,0.88
2023-04-01T12:32:49.419Z,0.91
2023-04-01T12:33:49.282Z,1.11
2023-04-01T12:34:49.917Z,0.87
2023-04-01T12:35:49.167Z,0.81
2023-04-01T12:36:51.107Z,0.88
2023-04-01T12:37:49.002Z,0.95
2023-04-01T12:38:48.924Z,1.03
2023-04-01T12:39:48.909Z,0.69
2023-04-01T12:40:48.802Z,0.59
2023-04-01T12:41:48.733Z,0.57
2023-04-01T12:42:48.606Z,0.54
2023-04-01T12:43:48.553Z,0.53
2023-04-01T12:44:48.485Z,0.79
2023-04-01T12:45:48.555Z,0.98
2023-04-01T12:46:48.390Z,0.84
2023-04-01T12:47:48.363Z,0.61
2023-04-01T12:48:48.247Z,0.56
2023-04-01T12:49:48.201Z,0.56
2023-04-01T12:50:48.126Z,0.82
2023-04-01T12:51:48.078Z,1.12
2023-04-01T12:52:48.030Z,1.65
2023-04-01T12:53:47.986Z,1.25
2023-04-01T12:54:47.932Z,1.19
2023-04-01T12:55:47.879Z,1.27
2023-04-01T12:56:47.869Z,1.32
2023-04-01T12:57:47.791Z,1.89